createdAt,value
2022-12-09T00:00:09.604Z,16.17
2022-12-09T00:02:36.747Z,17.63
2022-12-09T00:05:04.754Z,17.00
2022-12-09T00:07:32.040Z,16.50
2022-12-09T00:09:59.372Z,16.70
2022-12-09T00:12:26.370Z,16.77
2022-12-09T00:14:53.842Z,18.13
2022-12-09T00:17:21.134Z,17.60
2022-12-09T00:19:48.391Z,16.97
2022-12-09T00:22:15.291Z,16.97
2022-12-09T00:24:42.646Z,16.00
2022-12-09T00:27:10.539Z,16.70
2022-12-09T00:29:37.725Z,16.50
2022-12-09T00:32:05.075Z,17.20
2022-12-09T00:34:32.578Z,16.70
2022-12-09T00:36:59.688Z,15.97
2022-12-09T00:39:26.921Z,18.37
2022-12-09T00:41:54.533Z,15.57
2022-12-09T00:44:21.574Z,16.80
2022-12-09T00:46:49.149Z,16.93
2022-12-09T00:49:16.728Z,17.03
2022-12-09T00:51:43.571Z,15.87
2022-12-09T00:54:10.749Z,16.97
2022-12-09T00:56:38.210Z,16.80
2022-12-09T00:59:05.388Z,15.03
2022-12-09T01:01:33.179Z,16.63
2022-12-09T01:04:02.453Z,16.60
2022-12-09T01:06:30.012Z,16.60
2022-12-09T01:08:57.647Z,16.97
2022-12-09T01:11:27.134Z,16.23
2022-12-09T01:13:57.932Z,16.77
2022-12-09T01:16:25.962Z,17.23
2022-12-09T01:18:57.955Z,16.47
2022-12-09T01:21:25.164Z,17.17
2022-12-09T01:23:52.459Z,17.33
2022-12-09T01:26:19.961Z,17.03
2022-12-09T01:28:51.325Z,17.63
2022-12-09T01:31:23.253Z,16.73
2022-12-09T01:33:50.672Z,17.50
2022-12-09T01:36:19.646Z,17.63
2022-12-09T01:38:47.352Z,18.20
2022-12-09T01:41:14.832Z,16.40
2022-12-09T01:43:42.726Z,16.57
2022-12-09T01:46:09.763Z,16.57
2022-12-09T01:48:41.790Z,17.70
2022-12-09T01:51:13.266Z,16.83
2022-12-09T01:53:42.790Z,16.33
2022-12-09T01:56:14.566Z,16.93
2022-12-09T01:58:41.666Z,17.13
2022-12-09T02:01:08.558Z,18.70
2022-12-09T02:03:35.720Z,16.83
2022-12-09T02:06:03.233Z,18.03
2022-12-09T02:08:30.452Z,16.90
2022-12-09T02:10:59.032Z,17.33
2022-12-09T02:13:33.160Z,16.60
2022-12-09T02:16:02.674Z,16.90
2022-12-09T02:18:36.116Z,17.63
2022-12-09T02:21:15.974Z,16.13
2022-12-09T02:23:59.799Z,17.77
2022-12-09T02:26:40.879Z,16.27
2022-12-09T02:29:11.963Z,17.37
2022-12-09T02:32:01.232Z,16.13
2022-12-09T02:34:31.301Z,16.97
2022-12-09T02:37:01.322Z,17.73
2022-12-09T02:39:51.701Z,17.70
2022-12-09T02:42:22.271Z,19.00
2022-12-09T02:44:50.644Z,17.63
2022-12-09T02:47:21.447Z,18.00
2022-12-09T02:49:51.196Z,18.57
2022-12-09T02:52:19.960Z,17.73
2022-12-09T02:54:47.236Z,18.13
2022-12-09T02:57:16.381Z,19.60
2022-12-09T02:59:44.324Z,18.87
2022-12-09T03:02:22.117Z,17.30
2022-12-09T03:04:55.867Z,17.53
2022-12-09T03:07:38.930Z,17.77
2022-12-09T03:10:11.802Z,17.37
2022-12-09T03:12:40.478Z,17.60
2022-12-09T03:15:07.953Z,17.60
2022-12-09T03:17:36.394Z,17.30
2022-12-09T03:20:09.566Z,16.43
2022-12-09T03:22:37.549Z,16.03
2022-12-09T03:25:07.661Z,16.13
2022-12-09T03:27:40.152Z,15.00
2022-12-09T03:30:08.955Z,16.10
2022-12-09T03:32:38.397Z,16.23
2022-12-09T03:35:08.883Z,15.10
2022-12-09T03:37:38.736Z,15.73
2022-12-09T03:40:11.836Z,15.43
2022-12-09T03:42:44.783Z,15.50
2022-12-09T03:45:12.321Z,15.37
2022-12-09T03:47:39.426Z,14.77
2022-12-09T03:50:07.244Z,16.43
2022-12-09T03:52:34.840Z,15.60
2022-12-09T03:55:06.374Z,14.87
2022-12-09T03:57:35.659Z,14.67
2022-12-09T04:00:02.905Z,14.97
2022-12-09T04:02:39.491Z,17.60
2022-12-09T04:05:07.049Z,16.13
2022-12-09T04:07:34.207Z,14.67
2022-12-09T04:10:01.256Z,16.07
2022-12-09T04:12:28.356Z,15.53
2022-12-09T04:14:55.389Z,14.80
2022-12-09T04:17:22.692Z,15.40
2022-12-09T04:19:50.462Z,14.83
2022-12-09T04:22:17.556Z,15.30
2022-12-09T04:24:44.693Z,14.20
2022-12-09T04:27:12.097Z,15.80
2022-12-09T04:29:39.983Z,15.00
2022-12-09T04:32:06.977Z,15.03
2022-12-09T04:34:34.102Z,14.53
2022-12-09T04:37:01.070Z,14.87
2022-12-09T04:39:28.267Z,13.67
2022-12-09T04:41:55.171Z,14.50
2022-12-09T04:44:22.828Z,15.50
2022-12-09T04:46:50.059Z,15.60
2022-12-09T04:49:16.960Z,15.97
2022-12-09T04:51:43.954Z,15.90
2022-12-09T04:54:13.093Z,15.70
2022-12-09T04:56:40.325Z,17.07
2022-12-09T04:59:07.425Z,15.80
2022-12-09T05:01:34.821Z,16.43
2022-12-09T05:04:02.412Z,15.23
2022-12-09T05:06:29.862Z,15.30
2022-12-09T05:08:57.493Z,14.53
2022-12-09T05:11:25.059Z,14.67
2022-12-09T05:13:53.828Z,14.83
2022-12-09T05:16:21.404Z,14.93
2022-12-09T05:18:49.164Z,14.63
2022-12-09T05:21:17.323Z,14.90
2022-12-09T05:23:45.007Z,15.33
2022-12-09T05:26:13.211Z,16.40
2022-12-09T05:28:41.552Z,16.17
2022-12-09T05:31:13.810Z,14.20
2022-12-09T05:33:42.297Z,15.43
2022-12-09T05:36:10.606Z,15.97
2022-12-09T05:38:37.715Z,14.63
2022-12-09T05:41:05.313Z,14.97
2022-12-09T05:43:32.864Z,15.00
2022-12-09T05:46:01.076Z,13.53
2022-12-09T05:48:28.112Z,14.67
2022-12-09T05:51:21.757Z,16.57
2022-12-09T05:53:48.828Z,14.13
2022-12-09T05:56:17.094Z,13.87
2022-12-09T05:58:44.409Z,20.40
2022-12-09T06:01:11.380Z,13.73
2022-12-09T06:03:38.763Z,13.43
2022-12-09T06:06:10.281Z,16.33
2022-12-09T06:08:38.098Z,13.80
2022-12-09T06:11:05.964Z,19.57
2022-12-09T06:13:33.454Z,15.20
2022-12-09T06:16:04.621Z,15.63
2022-12-09T06:18:32.106Z,16.10
2022-12-09T06:20:59.682Z,14.73
2022-12-09T06:23:26.997Z,15.20
2022-12-09T06:25:54.264Z,14.93
2022-12-09T06:28:21.576Z,14.20
2022-12-09T06:30:48.484Z,13.73
2022-12-09T06:33:44.926Z,13.77
2022-12-09T06:36:03.470Z,13.50
2022-12-09T06:38:30.672Z,14.27
2022-12-09T06:40:58.248Z,14.73
2022-12-09T06:43:25.345Z,14.33
2022-12-09T06:45:52.488Z,14.33
2022-12-09T06:48:19.668Z,14.70
2022-12-09T06:50:47.225Z,15.20
2022-12-09T06:53:14.910Z,16.80
2022-12-09T06:55:42.136Z,16.93
2022-12-09T06:58:09.504Z,15.23
2022-12-09T07:00:36.865Z,18.00
2022-12-09T07:03:04.031Z,17.27
2022-12-09T07:05:32.215Z,16.27
2022-12-09T07:07:59.631Z,14.10
2022-12-09T07:10:26.642Z,13.30
2022-12-09T07:12:53.710Z,12.33
2022-12-09T07:15:20.605Z,13.13
2022-12-09T07:17:47.592Z,12.10
2022-12-09T07:20:14.915Z,12.10
2022-12-09T07:22:41.979Z,12.00
2022-12-09T07:25:09.590Z,11.73
2022-12-09T07:27:37.494Z,11.07
2022-12-09T07:30:04.880Z,11.47
2022-12-09T07:32:32.317Z,9.90
2022-12-09T07:34:59.671Z,11.27
2022-12-09T07:37:26.999Z,11.70
2022-12-09T07:39:54.010Z,10.83
2022-12-09T07:42:21.065Z,12.30
2022-12-09T07:44:54.077Z,13.13
2022-12-09T07:47:21.376Z,12.43
2022-12-09T07:49:48.476Z,12.27
2022-12-09T07:52:15.738Z,12.73
2022-12-09T07:54:45.261Z,13.17
2022-12-09T07:57:12.542Z,13.20
2022-12-09T07:59:39.721Z,13.53
2022-12-09T08:02:06.974Z,12.57
2022-12-09T08:04:35.476Z,13.47
2022-12-09T08:07:02.848Z,13.43
2022-12-09T08:09:37.696Z,12.97
2022-12-09T08:12:05.221Z,14.97
2022-12-09T08:14:32.430Z,15.77
2022-12-09T08:16:59.582Z,15.77
2022-12-09T08:19:27.080Z,13.70
2022-12-09T08:21:54.911Z,15.13
2022-12-09T08:24:22.708Z,14.10
2022-12-09T08:26:50.650Z,14.83
2022-12-09T08:29:17.723Z,14.83
2022-12-09T08:31:45.457Z,16.80
2022-12-09T08:34:13.428Z,16.33
2022-12-09T08:36:40.960Z,17.67
2022-12-09T08:39:08.490Z,16.87
2022-12-09T08:41:36.855Z,17.00
2022-12-09T08:44:14.363Z,18.80
2022-12-09T08:46:42.724Z,15.73
2022-12-09T08:49:10.858Z,16.53
2022-12-09T08:51:38.155Z,18.27
2022-12-09T08:54:06.403Z,19.10
2022-12-09T08:56:34.375Z,15.33
2022-12-09T08:59:02.150Z,16.83
2022-12-09T09:01:35.640Z,16.57
2022-12-09T09:04:05.122Z,17.33
2022-12-09T09:06:32.561Z,15.83
2022-12-09T09:09:00.189Z,16.27
2022-12-09T09:11:27.920Z,16.07
2022-12-09T09:13:55.400Z,17.67
2022-12-09T09:16:23.844Z,16.07
2022-12-09T09:18:51.689Z,17.13
2022-12-09T09:21:20.374Z,16.93
2022-12-09T09:23:48.097Z,16.53
2022-12-09T09:26:16.690Z,17.80
2022-12-09T09:28:43.902Z,16.87
2022-12-09T09:31:12.553Z,17.37
2022-12-09T09:33:40.030Z,17.60
2022-12-09T09:36:10.600Z,16.40
2022-12-09T09:38:38.748Z,16.40
2022-12-09T09:41:25.432Z,17.67
2022-12-09T09:43:53.793Z,17.27
2022-12-09T09:46:24.974Z,16.57
2022-12-09T09:48:53.087Z,17.90
2022-12-09T09:51:21.183Z,16.90
2022-12-09T09:53:50.524Z,17.13
2022-12-09T09:56:23.978Z,16.83
2022-12-09T09:59:09.668Z,17.13
2022-12-09T10:01:37.703Z,17.30
2022-12-09T10:04:19.315Z,15.53
2022-12-09T10:06:49.843Z,16.63
2022-12-09T10:09:21.720Z,17.13
2022-12-09T10:11:55.631Z,17.33
2022-12-09T10:14:29.331Z,17.70
2022-12-09T10:17:19.571Z,16.70
2022-12-09T10:19:54.394Z,15.77
2022-12-09T10:22:23.140Z,16.67
2022-12-09T10:24:51.724Z,17.43
2022-12-09T10:27:28.015Z,17.93
2022-12-09T10:29:57.715Z,16.73
2022-12-09T10:32:26.658Z,17.73
2022-12-09T10:34:54.202Z,18.43
2022-12-09T10:37:32.392Z,17.73
2022-12-09T10:40:04.037Z,19.40
2022-12-09T10:42:52.967Z,20.87
2022-12-09T10:45:20.424Z,18.73
2022-12-09T10:47:52.405Z,17.10
2022-12-09T10:50:31.869Z,18.47
2022-12-09T10:53:04.156Z,17.33
2022-12-09T10:55:34.949Z,17.43
2022-12-09T10:58:28.355Z,19.00
2022-12-09T11:01:07.140Z,18.57
2022-12-09T11:03:54.751Z,21.97
2022-12-09T11:06:27.363Z,17.87
2022-12-09T11:08:59.176Z,20.33
2022-12-09T11:11:43.669Z,20.33
2022-12-09T11:14:25.618Z,17.37
2022-12-09T11:16:54.601Z,18.60
2022-12-09T11:19:33.281Z,19.63
2022-12-09T11:22:13.635Z,21.97
2022-12-09T11:24:41.621Z,23.23
2022-12-09T11:27:26.176Z,23.20
2022-12-09T11:30:15.443Z,19.90
2022-12-09T11:32:57.732Z,26.53
2022-12-09T11:35:31.410Z,22.83
2022-12-09T11:38:00.912Z,24.70
2022-12-09T11:40:28.476Z,25.17
2022-12-09T11:42:56.511Z,21.40
2022-12-09T11:45:26.824Z,21.77
2022-12-09T11:50:49.557Z,22.43
2022-12-09T11:53:19.403Z,20.73
2022-12-09T11:56:01.336Z,24.90
2022-12-09T11:58:31.001Z,24.63
2022-12-09T12:01:04.109Z,24.57
2022-12-09T12:03:39.525Z,24.27
2022-12-09T12:06:08.806Z,21.53
2022-12-09T12:08:35.660Z,19.83
2022-12-09T12:11:13.467Z,19.23
2022-12-09T12:13:45.213Z,19.03
2022-12-09T12:16:12.573Z,17.37
2022-12-09T12:18:59.781Z,17.20
2022-12-09T12:21:55.864Z,18.00
2022-12-09T12:24:34.740Z,18.80
2022-12-09T12:27:19.969Z,19.23
2022-12-09T12:29:46.865Z,21.73
2022-12-09T12:32:32.665Z,20.87
2022-12-09T12:35:02.599Z,20.33
2022-12-09T12:37:51.497Z,21.03
2022-12-09T12:40:27.497Z,20.77
2022-12-09T12:43:13.646Z,27.90
2022-12-09T12:46:19.267Z,21.57
2022-12-09T12:48:58.666Z,22.60
2022-12-09T12:51:32.155Z,24.33
2022-12-09T12:54:20.302Z,25.40
2022-12-09T12:56:51.965Z,27.87
2022-12-09T12:59:36.102Z,29.60
2022-12-09T13:02:21.355Z,29.23
2022-12-09T13:04:50.003Z,31.77
2022-12-09T13:07:35.638Z,30.40
2022-12-09T13:10:05.137Z,32.33
2022-12-09T13:12:54.032Z,33.50
2022-12-09T13:15:34.326Z,34.13
2022-12-09T13:18:13.293Z,32.73
2022-12-09T13:20:50.970Z,32.57
2022-12-09T13:23:26.880Z,35.17
2022-12-09T13:26:03.265Z,33.67
2022-12-09T13:28:33.163Z,33.97
2022-12-09T13:31:01.133Z,33.93
2022-12-09T13:33:34.700Z,32.87
2022-12-09T13:36:05.566Z,32.67
2022-12-09T13:38:39.993Z,33.57
2022-12-09T13:41:25.664Z,32.33
2022-12-09T13:44:12.792Z,33.07
2022-12-09T13:46:40.062Z,37.57
2022-12-09T13:49:21.119Z,38.57
2022-12-09T13:51:49.538Z,38.53
2022-12-09T13:54:17.222Z,38.87
2022-12-09T13:56:44.404Z,47.97
2022-12-09T13:59:17.487Z,57.70
2022-12-09T14:01:50.058Z,47.93
2022-12-09T14:04:19.960Z,42.93
2022-12-09T14:06:46.727Z,42.57
2022-12-09T14:09:22.642Z,44.17
2022-12-09T14:11:54.240Z,47.20
2022-12-09T14:14:24.203Z,47.03
2022-12-09T14:16:54.008Z,52.87
2022-12-09T14:22:33.482Z,46.90
2022-12-09T14:25:20.313Z,34.40
2022-12-09T14:28:05.578Z,29.20
2022-12-09T14:30:35.362Z,31.00
2022-12-09T14:33:02.777Z,33.67
2022-12-09T14:35:39.100Z,34.30
2022-12-09T14:38:11.753Z,38.87
2022-12-09T14:40:45.917Z,32.73
2022-12-09T14:43:24.637Z,29.73
2022-12-09T15:05:55.166Z,21.63
2022-12-09T15:08:31.258Z,23.73
2022-12-09T15:10:58.983Z,29.43
2022-12-09T15:13:26.020Z,35.40
2022-12-09T15:15:53.636Z,38.03
2022-12-09T15:18:23.650Z,29.53
2022-12-09T15:20:52.131Z,27.80
2022-12-09T15:23:37.505Z,42.75
2022-12-09T15:26:09.056Z,33.63
2022-12-09T15:28:36.976Z,31.63
2022-12-09T15:31:18.878Z,34.53
2022-12-09T15:33:50.599Z,39.57
2022-12-09T15:36:29.555Z,30.47
2022-12-09T15:39:01.875Z,26.23
2022-12-09T15:41:50.498Z,24.57
2022-12-09T15:44:19.659Z,26.53
2022-12-09T15:46:47.608Z,29.33
2022-12-09T15:49:28.998Z,31.28
2022-12-09T15:51:56.247Z,29.93
2022-12-09T15:54:28.646Z,47.73
2022-12-09T15:57:00.153Z,37.40
2022-12-09T15:59:35.736Z,33.43
2022-12-09T16:02:03.207Z,29.17
2022-12-09T16:04:33.030Z,27.90
2022-12-09T16:07:13.589Z,30.10
2022-12-09T16:09:40.596Z,31.10
2022-12-09T16:12:26.498Z,32.20
2022-12-09T16:14:53.376Z,30.67
2022-12-09T16:17:21.940Z,33.27
2022-12-09T16:19:48.803Z,38.63
2022-12-09T16:22:15.803Z,50.60
2022-12-09T16:27:37.468Z,44.03
2022-12-09T16:30:15.111Z,39.97
2022-12-09T16:32:45.850Z,34.13
2022-12-09T16:35:15.515Z,35.00
2022-12-09T16:37:43.520Z,32.47
2022-12-09T16:40:36.510Z,32.70
2022-12-09T16:43:15.608Z,28.73
2022-12-09T16:45:43.534Z,25.90
2022-12-09T16:48:10.788Z,25.10
2022-12-09T16:50:40.123Z,25.27
2022-12-09T16:53:12.329Z,27.43
2022-12-09T16:55:39.224Z,26.97
2022-12-09T16:58:05.974Z,28.30
2022-12-09T17:00:32.754Z,28.00
2022-12-09T17:03:04.586Z,26.83
2022-12-09T17:05:31.516Z,32.47
2022-12-09T17:07:58.506Z,32.30
2022-12-09T17:10:25.265Z,25.70
2022-12-09T17:12:52.172Z,28.77
2022-12-09T17:15:20.160Z,27.30
2022-12-09T17:17:48.951Z,30.73
2022-12-09T17:20:16.451Z,33.60
2022-12-09T17:22:43.346Z,29.93
2022-12-09T17:25:10.637Z,34.27
2022-12-09T17:27:37.784Z,37.10
2022-12-09T17:30:05.046Z,38.53
2022-12-09T17:32:31.823Z,40.17
2022-12-09T17:34:58.732Z,40.13
2022-12-09T17:37:25.509Z,43.83
2022-12-09T17:40:06.151Z,37.33
2022-12-09T17:42:33.490Z,33.47
2022-12-09T17:45:00.312Z,33.30
2022-12-09T17:47:27.408Z,34.37
2022-12-09T17:49:54.177Z,38.60
2022-12-09T17:52:21.117Z,34.37
2022-12-09T17:54:48.080Z,33.97
2022-12-09T17:57:14.958Z,35.03
2022-12-09T17:59:41.781Z,35.17
2022-12-09T18:02:10.060Z,32.67
2022-12-09T18:04:36.873Z,30.37
2022-12-09T18:07:03.735Z,32.07
2022-12-09T18:09:30.621Z,30.43
2022-12-09T18:11:57.405Z,34.27
2022-12-09T18:14:25.676Z,32.20
2022-12-09T18:16:52.583Z,27.60
2022-12-09T18:19:20.889Z,27.90
2022-12-09T18:21:48.387Z,25.27
2022-12-09T18:24:15.183Z,23.37
2022-12-09T18:26:42.620Z,23.10
2022-12-09T18:29:10.185Z,21.40
2022-12-09T18:31:37.016Z,24.97
2022-12-09T18:34:03.829Z,24.53
2022-12-09T18:36:30.751Z,23.73
2022-12-09T18:39:00.547Z,24.63
2022-12-09T18:41:29.443Z,25.20
2022-12-09T18:43:57.115Z,25.90
2022-12-09T18:46:29.025Z,24.67
2022-12-09T18:49:00.381Z,24.30
2022-12-09T18:51:27.608Z,24.33
2022-12-09T18:53:54.777Z,26.43
2022-12-09T18:56:21.751Z,27.67
2022-12-09T19:01:39.706Z,25.97
2022-12-09T19:04:08.804Z,25.00
2022-12-09T19:06:38.094Z,26.73
2022-12-09T19:09:09.396Z,25.60
2022-12-09T19:11:37.615Z,27.23
2022-12-09T19:14:05.686Z,25.97
2022-12-09T19:16:32.991Z,28.67
2022-12-09T19:19:05.523Z,28.70
2022-12-09T19:21:35.831Z,28.60
2022-12-09T19:24:02.766Z,27.90
2022-12-09T19:26:30.929Z,28.00
2022-12-09T19:29:05.471Z,28.83
2022-12-09T19:31:33.864Z,27.43
2022-12-09T19:34:02.211Z,29.57
2022-12-09T19:36:29.684Z,27.93
2022-12-09T19:38:57.891Z,26.67
2022-12-09T19:41:24.749Z,27.20
2022-12-09T19:43:58.530Z,25.07
2022-12-09T19:46:26.900Z,25.07
2022-12-09T19:48:54.482Z,27.10
2022-12-09T19:51:21.993Z,27.67
2022-12-09T19:53:49.153Z,26.77
2022-12-09T19:56:17.966Z,27.37
2022-12-09T19:58:45.457Z,27.00
2022-12-09T20:01:18.626Z,25.77
2022-12-09T20:03:46.950Z,27.40
2022-12-09T20:06:14.596Z,23.47
2022-12-09T20:08:41.450Z,24.67
2022-12-09T20:11:15.708Z,24.33
2022-12-09T20:13:42.951Z,22.23
2022-12-09T20:16:11.282Z,22.07
2022-12-09T20:18:38.348Z,22.93
2022-12-09T20:21:06.386Z,23.10
2022-12-09T20:23:34.535Z,24.17
2022-12-09T20:26:09.310Z,23.30
2022-12-09T20:28:37.226Z,24.20
2022-12-09T20:31:15.044Z,21.90
2022-12-09T20:33:42.011Z,22.57
2022-12-09T20:36:15.739Z,20.57
2022-12-09T20:38:42.908Z,22.27
2022-12-09T20:41:11.380Z,24.80
2022-12-09T20:43:42.142Z,22.83
2022-12-09T20:46:10.213Z,21.77
2022-12-09T20:48:37.838Z,20.77
2022-12-09T20:51:13.179Z,20.40
2022-12-09T20:53:40.640Z,20.17
2022-12-09T20:56:07.750Z,22.07
2022-12-09T20:58:35.554Z,22.30
2022-12-09T21:01:09.507Z,22.60
2022-12-09T21:03:37.037Z,22.80
2022-12-09T21:06:04.164Z,21.87
2022-12-09T21:08:32.122Z,21.33
2022-12-09T21:11:03.228Z,22.37
2022-12-09T21:13:30.409Z,23.07
2022-12-09T21:16:04.674Z,27.03
2022-12-09T21:18:31.740Z,26.10
2022-12-09T21:20:58.719Z,23.43
2022-12-09T21:23:33.726Z,24.40
2022-12-09T21:26:12.105Z,24.00
2022-12-09T21:28:39.307Z,24.07
2022-12-09T21:31:12.036Z,24.83
2022-12-09T21:33:39.775Z,24.00
2022-12-09T21:36:07.449Z,23.80
2022-12-09T21:38:34.806Z,22.23
2022-12-09T21:41:05.568Z,21.63
2022-12-09T21:43:33.537Z,21.10
2022-12-09T21:46:04.858Z,21.50
2022-12-09T21:48:31.990Z,20.83
2022-12-09T21:50:59.810Z,21.87
2022-12-09T21:53:26.804Z,20.10
2022-12-09T21:55:53.887Z,20.50
2022-12-09T21:58:20.694Z,21.17
2022-12-09T22:00:48.011Z,20.33
2022-12-09T22:03:14.834Z,21.53
2022-12-09T22:05:42.331Z,20.57
2022-12-09T22:08:09.356Z,19.50
2022-12-09T22:10:37.696Z,19.87
2022-12-09T22:13:05.164Z,19.63
2022-12-09T22:15:32.550Z,19.13
2022-12-09T22:17:59.479Z,18.70
2022-12-09T22:23:13.216Z,16.87
2022-12-09T22:25:40.398Z,17.43
2022-12-09T22:28:07.184Z,16.77
2022-12-09T22:30:36.251Z,16.67
2022-12-09T22:33:03.739Z,18.90
2022-12-09T22:35:30.580Z,18.03
2022-12-09T22:37:59.351Z,19.23
2022-12-09T22:40:26.250Z,19.60
2022-12-09T22:42:53.357Z,19.97
2022-12-09T22:45:20.298Z,18.83
2022-12-09T22:47:47.245Z,17.47
2022-12-09T22:50:14.183Z,18.67
2022-12-09T22:52:40.991Z,18.90
2022-12-09T22:55:08.094Z,19.27
2022-12-09T22:57:34.906Z,19.07
2022-12-09T23:00:01.801Z,19.33
2022-12-09T23:02:28.841Z,19.00
2022-12-09T23:04:55.919Z,18.07
2022-12-09T23:07:22.971Z,21.33
2022-12-09T23:09:50.509Z,22.40
2022-12-09T23:12:17.304Z,23.13
2022-12-09T23:14:44.208Z,21.63
2022-12-09T23:17:11.916Z,24.97
2022-12-09T23:19:38.707Z,23.30
2022-12-09T23:22:07.221Z,25.57
2022-12-09T23:24:34.174Z,29.10
2022-12-09T23:27:01.048Z,27.07
2022-12-09T23:29:28.293Z,25.43
2022-12-09T23:31:55.178Z,26.47
2022-12-09T23:34:22.002Z,28.53
2022-12-09T23:36:48.872Z,28.10
2022-12-09T23:39:17.260Z,27.43
2022-12-09T23:41:44.641Z,26.60
2022-12-09T23:44:12.847Z,26.73
2022-12-09T23:46:40.277Z,28.97
2022-12-09T23:49:07.755Z,27.87
2022-12-09T23:51:35.279Z,28.13
2022-12-09T23:54:03.530Z,25.77
2022-12-09T23:56:31.439Z,26.90
2022-12-09T23:58:59.820Z,26.70
